Time;durP1;ratioP1;P1;durP2;ratioP2;P2;SDS_P1;SDS_P2;PMS_P1;PMS_P2;Temp;Humidity;BMP_temperature;BMP_pressure;BME280_temperature;BME280_humidity;BME280_pressure;Samples;Min_cycle;Max_cycle;Signal;HPM_P1;HPM_P2
2023/06/18 00:00:15;;;;;;;2.90;1.00;;;;;;;9.45;100.00;99592.66;5041987;28;20063;-58
2023/06/18 00:02:48;;;;;;;5.40;0.80;;;;;;;9.50;100.00;99580.38;5032751;28;20791;-58
2023/06/18 00:05:21;;;;;;;5.70;1.00;;;;;;;9.62;100.00;99604.47;5042513;28;20094;-59
2023/06/18 00:07:51;;;;;;;5.90;1.40;;;;;;;9.55;100.00;99608.09;5033313;28;20654;-61
2023/06/18 00:10:22;;;;;;;6.18;1.35;;;;;;;9.55;100.00;99613.31;5044488;28;20442;-61
2023/06/18 00:12:53;;;;;;;5.10;1.10;;;;;;;9.56;100.00;99604.59;5032893;28;20240;-60
2023/06/18 00:15:23;;;;;;;2.33;1.10;;;;;;;9.64;100.00;99613.13;5043389;28;20060;-60
2023/06/18 00:17:55;;;;;;;8.77;1.25;;;;;;;9.70;100.00;99612.97;5032923;28;20048;-59
2023/06/18 00:20:26;;;;;;;4.00;0.90;;;;;;;9.70;100.00;99602.53;5043601;28;20491;-60
2023/06/18 00:22:56;;;;;;;2.83;0.93;;;;;;;9.78;100.00;99590.16;5033343;28;20068;-57
2023/06/18 00:25:27;;;;;;;4.60;1.10;;;;;;;9.87;100.00;99605.59;5044017;28;20113;-60
2023/06/18 00:27:57;;;;;;;5.05;1.50;;;;;;;9.90;100.00;99604.66;5033144;28;20053;-59
2023/06/18 00:30:28;;;;;;;5.85;1.10;;;;;;;10.01;100.00;99600.06;5043684;28;20079;-62
2023/06/18 00:33:00;;;;;;;2.95;1.05;;;;;;;9.97;100.00;99606.22;5033543;28;20060;-59
2023/06/18 00:35:31;;;;;;;3.25;1.15;;;;;;;9.99;100.00;99603.59;5043683;28;20206;-61
2023/06/18 00:38:03;;;;;;;3.50;0.88;;;;;;;9.94;100.00;99604.56;5033377;28;20485;-59
2023/06/18 00:40:33;;;;;;;5.10;0.88;;;;;;;10.03;100.00;99605.22;5036095;28;20060;-59
2023/06/18 00:43:04;;;;;;;4.32;1.10;;;;;;;10.11;100.00;99605.91;5043562;28;20052;-59
2023/06/18 00:45:35;;;;;;;2.92;0.93;;;;;;;10.07;100.00;99612.94;5033439;28;20122;-61
2023/06/18 00:48:12;;;;;;;3.47;1.10;;;;;;;10.17;100.00;99607.50;5029042;28;20059;-61
2023/06/18 00:50:43;;;;;;;5.43;1.20;;;;;;;10.28;100.00;99606.38;5011290;28;20600;-61
2023/06/18 00:53:14;;;;;;;3.80;1.00;;;;;;;10.24;100.00;99594.25;5025958;28;20049;-58
2023/06/18 00:55:46;;;;;;;2.95;0.90;;;;;;;10.44;100.00;99595.53;5022334;28;20537;-57
2023/06/18 00:58:18;;;;;;;4.88;1.25;;;;;;;10.57;100.00;99596.91;5040036;28;20064;-58
2023/06/18 01:00:49;;;;;;;3.00;1.00;;;;;;;10.76;100.00;99603.34;5024053;28;20056;-60
2023/06/18 01:03:22;;;;;;;2.17;0.80;;;;;;;10.86;100.00;99593.50;5033652;28;20048;-53
2023/06/18 01:05:58;;;;;;;3.60;1.23;;;;;;;10.85;100.00;99586.53;5018518;28;20480;-59
2023/06/18 01:08:32;;;;;;;4.82;1.00;;;;;;;10.99;100.00;99599.22;5003990;28;20046;-61
2023/06/18 01:11:04;;;;;;;2.78;0.90;;;;;;;11.13;100.00;99591.84;5011870;28;20084;-61
2023/06/18 01:13:39;;;;;;;2.90;0.93;;;;;;;11.27;100.00;99599.25;5013739;28;20057;-58
2023/06/18 01:16:11;;;;;;;3.15;0.80;;;;;;;11.22;99.99;99591.56;5024089;28;20057;-57
2023/06/18 01:18:46;;;;;;;3.72;0.88;;;;;;;11.20;99.09;99584.66;5001304;28;20171;-62
2023/06/18 01:21:19;;;;;;;3.30;1.00;;;;;;;11.22;98.82;99607.25;5015585;28;20057;-58
2023/06/18 01:24:03;;;;;;;4.53;0.93;;;;;;;11.28;98.64;99589.66;5013902;28;20102;-60
2023/06/18 01:26:35;;;;;;;2.72;1.05;;;;;;;11.17;97.58;99567.31;5017215;28;20144;-61
2023/06/18 01:29:09;;;;;;;1.38;0.75;;;;;;;11.37;97.20;99599.84;5028801;28;20059;-56
2023/06/18 01:31:44;;;;;;;3.25;0.70;;;;;;;11.46;97.58;99594.34;5031943;28;20406;-58
2023/06/18 01:34:17;;;;;;;2.42;0.80;;;;;;;11.51;95.08;99597.69;5043168;28;20052;-60
2023/06/18 01:36:56;;;;;;;3.05;1.05;;;;;;;11.52;97.20;99594.13;5032262;28;20056;-61
2023/06/18 01:39:37;;;;;;;5.32;0.90;;;;;;;11.60;97.14;99592.13;5042510;28;20511;-58
2023/06/18 01:42:15;;;;;;;2.95;0.80;;;;;;;11.79;96.57;99594.19;5032102;28;20060;-57
2023/06/18 01:44:49;;;;;;;2.38;0.60;;;;;;;11.50;94.92;99538.38;5032196;28;20082;-58
2023/06/18 01:47:21;;;;;;;1.80;0.82;;;;;;;11.65;93.92;99548.34;5043470;28;20053;-56
2023/06/18 01:49:55;;;;;;;0.73;0.55;;;;;;;11.82;91.40;99591.47;5033762;28;20061;-59
2023/06/18 01:52:26;;;;;;;3.00;0.80;;;;;;;11.91;93.86;99600.84;5044208;28;20140;-57
2023/06/18 01:54:59;;;;;;;4.20;1.13;;;;;;;11.93;94.56;99605.13;5031176;28;20060;-57
2023/06/18 01:57:32;;;;;;;3.15;0.95;;;;;;;11.93;93.79;99599.00;5039129;28;20048;-59
2023/06/18 02:00:04;;;;;;;1.50;0.70;;;;;;;11.87;94.37;99610.53;5023582;28;20078;-59
2023/06/18 02:02:34;;;;;;;1.20;0.80;;;;;;;11.86;93.97;99616.66;5030862;28;20391;-59
2023/06/18 02:05:07;;;;;;;3.45;0.88;;;;;;;11.75;92.89;99610.88;5041176;28;20794;-58
2023/06/18 02:07:38;;;;;;;2.08;0.73;;;;;;;11.39;93.25;99577.13;5031404;28;20110;-61
2023/06/18 02:10:09;;;;;;;2.70;0.73;;;;;;;11.05;93.99;99536.28;5041706;28;20053;-60
2023/06/18 02:12:40;;;;;;;2.30;0.88;;;;;;;11.55;94.56;99603.66;5031037;28;20052;-58
2023/06/18 02:15:11;;;;;;;4.25;0.85;;;;;;;11.60;94.70;99602.59;5041585;28;20048;-57
2023/06/18 02:17:42;;;;;;;5.75;0.98;;;;;;;10.92;96.54;99488.75;5030711;28;20052;-60
2023/06/18 02:20:15;;;;;;;3.92;0.80;;;;;;;11.78;96.25;99600.31;5038794;28;20139;-60
2023/06/18 02:22:45;;;;;;;1.95;0.82;;;;;;;11.76;95.07;99602.16;5031105;28;20299;-57
2023/06/18 02:25:19;;;;;;;3.00;0.80;;;;;;;11.68;93.44;99604.13;5041969;28;20052;-58
2023/06/18 02:27:58;;;;;;;2.17;0.90;;;;;;;11.69;94.49;99600.63;5030748;28;20056;-58
2023/06/18 02:30:30;;;;;;;1.95;0.90;;;;;;;11.79;94.59;99602.91;5040158;28;21001;-57
2023/06/18 02:33:02;;;;;;;3.17;0.90;;;;;;;11.97;94.83;99595.38;5023149;28;20060;-59
2023/06/18 02:35:35;;;;;;;4.18;0.90;;;;;;;12.03;93.26;99595.16;5020692;28;20059;-59
2023/06/18 02:38:06;;;;;;;4.10;0.85;;;;;;;12.02;92.89;99594.31;5022113;28;20049;-58
2023/06/18 02:40:36;;;;;;;3.25;0.80;;;;;;;12.05;92.15;99599.44;5012173;28;20057;-59
2023/06/18 02:43:08;;;;;;;3.50;0.98;;;;;;;11.98;92.48;99603.19;5022422;28;20152;-59
2023/06/18 02:45:42;;;;;;;2.13;0.88;;;;;;;11.92;92.18;99598.16;5028470;28;20297;-58
2023/06/18 02:48:13;;;;;;;2.97;0.82;;;;;;;11.77;91.73;99593.38;5041849;28;20127;-57
2023/06/18 02:50:45;;;;;;;1.10;0.90;;;;;;;11.78;92.31;99589.84;5030513;28;20722;-62
2023/06/18 02:53:16;;;;;;;4.15;0.85;;;;;;;11.83;93.09;99590.56;5041242;28;20059;-58
2023/06/18 02:55:47;;;;;;;2.45;1.00;;;;;;;11.79;94.24;99586.34;5031346;28;20441;-59
2023/06/18 02:58:28;;;;;;;0.98;0.88;;;;;;;11.81;93.71;99585.38;5041572;28;20101;-60
2023/06/18 03:00:59;;;;;;;2.95;1.05;;;;;;;11.86;94.63;99582.63;5030226;28;20133;-58
2023/06/18 03:03:30;;;;;;;7.43;1.23;;;;;;;11.86;94.32;99585.25;5040414;28;20151;-60
2023/06/18 03:06:02;;;;;;;2.78;0.98;;;;;;;11.94;94.51;99591.09;5030490;28;20533;-61
2023/06/18 03:08:33;;;;;;;3.72;1.13;;;;;;;12.01;94.36;99590.00;5031216;28;20036;-58
2023/06/18 03:11:04;;;;;;;5.38;1.60;;;;;;;12.14;93.41;99584.34;5040355;28;20059;-60
2023/06/18 03:13:34;;;;;;;3.42;1.10;;;;;;;12.10;93.43;99539.06;5030458;28;20063;-55
2023/06/18 03:16:05;;;;;;;3.53;1.17;;;;;;;12.51;92.78;99581.34;5041296;28;20155;-61
2023/06/18 03:18:37;;;;;;;2.90;1.00;;;;;;;12.55;91.79;99576.81;5029237;28;20155;-61
2023/06/18 03:21:09;;;;;;;3.55;1.25;;;;;;;12.68;91.75;99578.09;5040218;28;20052;-62
2023/06/18 03:23:40;;;;;;;2.08;0.80;;;;;;;12.93;91.28;99573.69;5030738;28;20616;-60
2023/06/18 03:26:10;;;;;;;3.25;1.02;;;;;;;13.17;89.10;99576.28;5040333;28;20143;-60
2023/06/18 03:28:41;;;;;;;4.40;0.98;;;;;;;13.15;88.86;99575.47;5028964;28;20145;-58
2023/06/18 03:31:12;;;;;;;3.13;1.13;;;;;;;13.17;90.19;99573.66;5040165;28;20040;-59
2023/06/18 03:33:43;;;;;;;5.18;0.90;;;;;;;13.16;90.06;99579.84;5029903;28;20052;-62
2023/06/18 03:36:17;;;;;;;3.35;0.90;;;;;;;13.06;89.37;99562.75;5040111;28;20079;-61
2023/06/18 03:38:48;;;;;;;2.80;0.90;;;;;;;13.00;89.12;99573.44;5030249;28;20075;-57
2023/06/18 03:41:18;;;;;;;6.78;0.80;;;;;;;12.98;89.05;99567.41;5039859;28;20044;-60
2023/06/18 03:43:49;;;;;;;2.65;1.10;;;;;;;12.84;90.64;99567.91;5030335;28;20068;-60
2023/06/18 03:46:20;;;;;;;2.78;1.42;;;;;;;12.74;92.08;99572.63;5040794;28;20361;-58
2023/06/18 03:48:51;;;;;;;4.43;1.48;;;;;;;12.62;92.49;99573.06;5029140;28;20793;-59
2023/06/18 03:51:23;;;;;;;3.40;1.02;;;;;;;12.46;91.37;99562.28;5038542;28;20815;-58
2023/06/18 03:53:54;;;;;;;4.57;1.00;;;;;;;12.28;91.26;99579.47;5029931;28;20053;-60
2023/06/18 03:56:24;;;;;;;4.45;1.42;;;;;;;12.11;90.66;99576.63;5039205;28;20075;-58
2023/06/18 03:58:55;;;;;;;3.85;1.25;;;;;;;11.94;91.32;99583.25;5029153;28;20059;-57
2023/06/18 04:01:26;;;;;;;4.30;1.40;;;;;;;11.70;91.87;99565.69;5040246;28;20671;-59
2023/06/18 04:03:57;;;;;;;3.53;1.50;;;;;;;11.75;93.06;99577.72;5029181;28;20052;-58
2023/06/18 04:06:29;;;;;;;6.57;1.70;;;;;;;11.74;92.43;99577.78;5039291;28;20059;-61
2023/06/18 04:09:00;;;;;;;4.30;1.60;;;;;;;11.53;93.25;99569.72;5029311;28;20466;-57
2023/06/18 04:11:30;;;;;;;5.63;2.35;;;;;;;11.54;93.79;99592.34;5039774;28;20121;-60
2023/06/18 04:14:01;;;;;;;4.38;2.00;;;;;;;11.55;95.12;99578.34;5028734;28;20746;-59
2023/06/18 04:16:32;;;;;;;4.35;1.45;;;;;;;11.49;94.71;99578.53;5038316;28;20106;-58
2023/06/18 04:19:02;;;;;;;4.53;1.70;;;;;;;11.42;95.17;99584.88;5039507;28;20097;-60
2023/06/18 04:21:35;;;;;;;4.53;1.60;;;;;;;11.40;95.46;99573.59;5034025;28;20063;-59
2023/06/18 04:24:06;;;;;;;7.07;1.60;;;;;;;11.47;94.61;99575.13;5039134;28;20055;-58
2023/06/18 04:26:36;;;;;;;2.58;1.00;;;;;;;11.59;94.32;99585.19;5028576;28;20059;-59
2023/06/18 04:29:07;;;;;;;4.15;1.77;;;;;;;11.64;94.82;99588.53;5039137;28;20040;-60
2023/06/18 04:31:38;;;;;;;7.25;2.90;;;;;;;11.60;93.09;99591.28;5029072;28;21219;-59
2023/06/18 04:34:08;;;;;;;3.25;1.38;;;;;;;11.49;93.40;99583.78;5039597;28;20109;-60
2023/06/18 04:36:41;;;;;;;5.40;1.90;;;;;;;11.48;94.06;99591.66;5028429;28;20946;-58
2023/06/18 04:39:12;;;;;;;4.15;1.67;;;;;;;11.56;95.13;99589.69;5039099;28;20057;-58
2023/06/18 04:41:43;;;;;;;2.53;1.15;;;;;;;11.62;94.40;99585.09;5028269;28;20190;-62
2023/06/18 04:44:13;;;;;;;4.65;2.25;;;;;;;11.77;94.79;99588.16;5038833;28;20048;-59
2023/06/18 04:46:44;;;;;;;5.85;1.58;;;;;;;11.89;94.14;99590.41;5029028;28;20474;-59
2023/06/18 04:49:16;;;;;;;3.92;1.75;;;;;;;11.88;92.45;99593.91;5039957;28;20101;-61
2023/06/18 04:51:48;;;;;;;2.55;1.35;;;;;;;11.74;91.44;99588.25;5029062;28;20071;-60
2023/06/18 04:54:19;;;;;;;4.90;1.20;;;;;;;11.57;91.88;99597.47;5038713;28;20053;-59
2023/06/18 04:56:50;;;;;;;4.47;1.38;;;;;;;11.53;91.65;99600.22;5028528;28;20157;-57
2023/06/18 04:59:20;;;;;;;2.22;0.90;;;;;;;11.32;91.64;99606.97;5037861;28;20048;-58
2023/06/18 05:01:52;;;;;;;2.85;1.15;;;;;;;11.25;93.27;99618.53;5025571;28;20054;-59
2023/06/18 05:04:23;;;;;;;1.90;1.00;;;;;;;11.12;93.62;99616.25;5039220;28;20044;-60
2023/06/18 05:06:55;;;;;;;4.78;0.88;;;;;;;11.12;93.96;99621.50;5026652;28;20056;-58
2023/06/18 05:09:28;;;;;;;6.35;1.50;;;;;;;11.09;93.50;99611.13;5038264;28;20052;-60
2023/06/18 05:11:58;;;;;;;7.03;1.45;;;;;;;10.96;93.79;99610.63;5018087;28;20080;-58
2023/06/18 05:14:29;;;;;;;5.25;1.50;;;;;;;10.95;94.47;99615.88;5038850;28;20052;-62
2023/06/18 05:17:00;;;;;;;5.72;1.27;;;;;;;10.99;94.18;99614.91;5020642;28;21294;-58
2023/06/18 05:19:31;;;;;;;5.93;1.63;;;;;;;10.91;93.69;99616.88;5038939;28;20678;-57
2023/06/18 05:22:03;;;;;;;2.47;1.30;;;;;;;10.97;94.24;99621.94;5027842;28;20049;-59
2023/06/18 05:24:35;;;;;;;4.88;1.55;;;;;;;10.97;93.34;99632.38;5028325;28;20102;-58
2023/06/18 05:27:07;;;;;;;3.85;1.27;;;;;;;10.92;93.45;99629.03;5039109;28;20032;-59
2023/06/18 05:29:38;;;;;;;3.88;1.50;;;;;;;10.89;93.20;99631.75;5028073;28;20060;-59
2023/06/18 05:32:09;;;;;;;4.95;1.45;;;;;;;10.88;92.99;99635.25;5038499;28;20056;-59
2023/06/18 05:34:43;;;;;;;4.78;2.10;;;;;;;10.84;92.70;99625.78;5028439;28;20647;-61
2023/06/18 05:37:15;;;;;;;5.22;1.70;;;;;;;10.88;92.94;99632.63;5039009;28;20143;-61
2023/06/18 05:39:46;;;;;;;7.53;1.70;;;;;;;10.85;92.71;99637.94;5028494;28;20478;-56
2023/06/18 05:42:16;;;;;;;5.82;1.30;;;;;;;10.85;93.33;99643.19;5038628;28;20036;-59
2023/06/18 05:44:47;;;;;;;3.17;1.38;;;;;;;10.65;91.28;99641.97;5028588;28;20474;-62
2023/06/18 05:47:18;;;;;;;5.03;1.95;;;;;;;10.51;93.34;99644.94;5038836;28;20621;-59
2023/06/18 05:49:49;;;;;;;4.15;1.60;;;;;;;10.35;93.33;99647.06;5028577;28;20106;-59
2023/06/18 05:52:21;;;;;;;5.63;1.50;;;;;;;10.20;92.66;99660.47;5039107;28;20536;-57
2023/06/18 05:54:52;;;;;;;3.50;1.40;;;;;;;10.05;93.34;99664.31;5028026;28;21600;-58
2023/06/18 05:57:22;;;;;;;5.15;1.30;;;;;;;10.01;92.60;99659.19;5038266;28;20037;-58
2023/06/18 05:59:53;;;;;;;3.28;1.35;;;;;;;9.99;92.98;99666.25;5026658;28;20053;-60
2023/06/18 06:02:23;;;;;;;1.55;1.20;;;;;;;9.91;94.18;99649.00;5037588;28;20141;-59
2023/06/18 06:04:54;;;;;;;6.50;1.35;;;;;;;9.94;93.60;99659.38;5027746;28;20072;-58
2023/06/18 06:07:27;;;;;;;6.30;1.48;;;;;;;9.87;93.18;99663.00;5037761;28;20118;-56
2023/06/18 06:09:57;;;;;;;5.97;1.33;;;;;;;9.85;93.68;99658.72;5025488;28;20063;-60
2023/06/18 06:12:28;;;;;;;3.80;1.00;;;;;;;9.81;93.02;99668.38;5040546;28;20065;-57
2023/06/18 06:14:59;;;;;;;4.50;1.40;;;;;;;9.85;94.61;99659.56;5032230;28;20052;-57
2023/06/18 06:17:30;;;;;;;3.25;1.33;;;;;;;9.70;94.93;99659.91;5042233;28;20503;-56
2023/06/18 06:20:01;;;;;;;2.83;1.40;;;;;;;9.70;95.36;99675.56;5031246;28;20530;-57
2023/06/18 06:22:33;;;;;;;1.77;1.20;;;;;;;9.57;96.32;99658.47;5042144;28;20048;-59
2023/06/18 06:25:04;;;;;;;6.45;1.33;;;;;;;9.76;96.74;99675.44;5030868;28;20760;-59
2023/06/18 06:27:34;;;;;;;11.82;1.60;;;;;;;9.77;95.84;99677.16;5030949;28;20065;-59
2023/06/18 06:30:06;;;;;;;3.25;1.48;;;;;;;9.84;95.82;99678.75;5041522;28;20049;-58
2023/06/18 06:32:37;;;;;;;3.50;1.45;;;;;;;10.04;96.80;99674.81;5030623;28;20071;-60
2023/06/18 06:35:08;;;;;;;3.85;1.27;;;;;;;10.10;95.30;99679.88;5040964;28;20076;-59
2023/06/18 06:37:41;;;;;;;3.63;1.45;;;;;;;10.07;94.72;99666.91;5031093;28;20450;-59
2023/06/18 06:40:12;;;;;;;7.43;1.52;;;;;;;10.17;94.82;99678.84;5041968;28;20060;-61
2023/06/18 06:42:42;;;;;;;6.07;1.60;;;;;;;10.08;94.90;99672.09;5030677;28;20063;-59
2023/06/18 06:45:13;;;;;;;5.97;1.42;;;;;;;10.01;95.24;99677.47;5041281;28;20045;-61
2023/06/18 06:47:46;;;;;;;4.22;1.30;;;;;;;9.88;96.58;99683.00;5030495;28;20048;-58
2023/06/18 06:50:17;;;;;;;5.22;1.20;;;;;;;9.79;96.68;99674.53;5041711;28;20147;-58
2023/06/18 06:52:49;;;;;;;7.57;1.27;;;;;;;9.47;97.82;99643.03;5030810;28;20549;-58
2023/06/18 06:55:20;;;;;;;2.30;1.10;;;;;;;9.60;98.32;99674.06;5042184;28;20068;-58
2023/06/18 06:57:50;;;;;;;5.65;1.30;;;;;;;9.75;99.67;99684.16;5030821;28;20802;-56
2023/06/18 07:00:21;;;;;;;3.58;1.30;;;;;;;9.75;98.30;99694.59;5040889;28;20061;-57
2023/06/18 07:02:52;;;;;;;3.78;1.10;;;;;;;9.82;98.76;99696.19;5030420;28;22301;-58
2023/06/18 07:05:23;;;;;;;3.97;0.90;;;;;;;10.04;98.62;99695.69;5041084;28;20113;-59
2023/06/18 07:07:55;;;;;;;1.38;0.88;;;;;;;10.14;92.79;99681.53;5029451;28;20479;-61
2023/06/18 07:10:25;;;;;;;1.27;0.68;;;;;;;10.19;92.85;99695.34;5039824;28;20060;-59
2023/06/18 07:12:56;;;;;;;7.97;0.90;;;;;;;10.39;93.43;99683.59;5029051;28;20628;-59
2023/06/18 07:15:27;;;;;;;0.85;0.60;;;;;;;10.50;90.95;99692.00;5040656;28;20106;-57
2023/06/18 07:17:57;;;;;;;2.38;0.73;;;;;;;10.41;91.63;99653.91;5029641;28;20052;-59
2023/06/18 07:20:28;;;;;;;2.22;0.85;;;;;;;10.76;90.58;99692.19;5040600;28;20048;-59
2023/06/18 07:23:00;;;;;;;2.47;0.73;;;;;;;10.98;88.84;99683.75;5013258;28;20082;-59
2023/06/18 07:25:31;;;;;;;1.42;0.73;;;;;;;10.97;86.86;99680.28;5040344;28;20052;-59
2023/06/18 07:28:02;;;;;;;1.77;0.77;;;;;;;11.27;87.76;99687.34;5010220;28;20438;-58
2023/06/18 07:30:32;;;;;;;5.90;1.20;;;;;;;11.08;86.62;99613.78;5026916;28;20491;-59
2023/06/18 07:33:03;;;;;;;3.65;0.82;;;;;;;11.52;85.30;99688.34;5040279;28;20494;-60
2023/06/18 07:35:34;;;;;;;1.55;0.85;;;;;;;11.54;85.68;99685.69;5029447;28;20138;-59
2023/06/18 07:38:06;;;;;;;3.67;0.98;;;;;;;11.70;86.03;99691.31;5038849;28;20048;-58
2023/06/18 07:40:38;;;;;;;1.92;0.80;;;;;;;11.62;85.86;99695.00;5029527;28;20048;-60
2023/06/18 07:43:09;;;;;;;1.95;0.77;;;;;;;11.37;84.95;99688.78;5039547;28;20072;-58
2023/06/18 07:45:40;;;;;;;2.88;0.90;;;;;;;11.36;86.79;99708.00;5029452;28;20040;-59
2023/06/18 07:48:11;;;;;;;2.75;0.70;;;;;;;11.39;86.39;99707.91;5039947;28;20466;-58
2023/06/18 07:50:42;;;;;;;1.50;1.10;;;;;;;11.37;86.54;99714.94;5028857;28;20151;-60
2023/06/18 07:53:14;;;;;;;1.27;0.80;;;;;;;11.37;85.46;99714.94;5040048;28;20052;-58
2023/06/18 07:55:45;;;;;;;4.43;0.80;;;;;;;11.31;86.97;99717.75;5029661;28;20063;-60
2023/06/18 07:58:15;;;;;;;3.05;0.82;;;;;;;11.17;86.76;99716.34;5040171;28;20071;-59
2023/06/18 08:00:46;;;;;;;1.63;0.65;;;;;;;10.80;87.31;99719.94;5029960;28;20040;-58
2023/06/18 08:03:17;;;;;;;1.17;0.60;;;;;;;10.54;89.25;99722.38;5039534;28;20060;-57
2023/06/18 08:05:47;;;;;;;2.10;0.80;;;;;;;10.30;90.26;99716.84;5027956;28;20114;-62
2023/06/18 08:08:20;;;;;;;1.60;0.82;;;;;;;10.14;91.13;99718.09;5039890;28;20055;-59
2023/06/18 08:10:50;;;;;;;2.40;0.80;;;;;;;10.27;91.12;99732.56;5026539;28;20063;-57
2023/06/18 08:13:21;;;;;;;5.35;0.90;;;;;;;10.31;92.39;99729.03;5040181;28;20055;-56
2023/06/18 08:15:51;;;;;;;1.42;0.90;;;;;;;10.21;91.95;99740.53;5029117;28;20052;-57
2023/06/18 08:18:22;;;;;;;3.17;1.00;;;;;;;9.94;92.04;99716.78;5037637;28;20063;-56
2023/06/18 08:20:54;;;;;;;2.15;0.75;;;;;;;9.93;92.77;99725.50;5028675;28;20073;-58
2023/06/18 08:23:26;;;;;;;4.78;1.25;;;;;;;10.01;93.90;99747.94;5039318;28;20048;-58
2023/06/18 08:25:57;;;;;;;4.90;0.90;;;;;;;9.73;93.24;99712.03;5021628;28;20437;-63
2023/06/18 08:28:27;;;;;;;3.75;0.80;;;;;;;9.89;93.83;99760.38;5039715;28;20044;-60
2023/06/18 08:30:58;;;;;;;3.55;0.70;;;;;;;9.81;94.37;99767.53;5029140;28;20055;-59
2023/06/18 08:33:29;;;;;;;4.32;0.73;;;;;;;9.82;94.16;99766.63;5038789;28;20544;-60
2023/06/18 08:35:59;;;;;;;3.17;0.80;;;;;;;9.66;94.45;99773.03;5028802;28;20078;-60
2023/06/18 08:38:31;;;;;;;1.13;0.80;;;;;;;9.53;96.12;99774.19;5039058;28;20102;-59
2023/06/18 08:41:03;;;;;;;1.25;0.60;;;;;;;9.36;96.38;99788.44;5028192;28;20132;-60
2023/06/18 08:43:36;;;;;;;2.35;0.98;;;;;;;9.25;97.09;99787.75;5032104;28;20072;-61
2023/06/18 08:46:11;;;;;;;2.47;1.10;;;;;;;9.15;97.95;99775.78;5039039;28;20048;-60
2023/06/18 08:48:45;;;;;;;4.25;1.00;;;;;;;9.13;98.14;99793.19;5028809;28;20055;-58
2023/06/18 08:51:18;;;;;;;2.47;0.95;;;;;;;8.80;99.21;99753.81;5039027;28;20136;-62
2023/06/18 08:53:55;;;;;;;3.13;0.70;;;;;;;8.96;99.37;99802.19;5028969;28;20056;-58
2023/06/18 08:56:26;;;;;;;5.80;1.25;;;;;;;8.66;100.00;99766.22;5038693;28;20049;-59
2023/06/18 08:58:58;;;;;;;3.13;0.82;;;;;;;8.92;100.00;99800.50;5028025;28;20048;-61
2023/06/18 09:01:30;;;;;;;1.42;0.70;;;;;;;8.81;98.66;99802.41;5039521;28;20486;-60
2023/06/18 09:04:02;;;;;;;2.35;0.80;;;;;;;8.78;97.86;99818.09;5027634;28;20495;-60
2023/06/18 09:06:33;;;;;;;1.95;0.80;;;;;;;8.69;97.92;99811.31;5033070;28;20048;-60
2023/06/18 09:09:29;;;;;;;3.00;0.82;;;;;;;8.73;98.07;99823.38;5036016;28;20053;-58
2023/06/18 09:12:21;;;;;;;4.45;0.85;;;;;;;8.55;98.05;99806.31;5017976;28;20456;-60
2023/06/18 09:15:10;;;;;;;1.73;1.00;;;;;;;8.65;98.14;99833.06;5018815;28;20045;-58
2023/06/18 09:17:50;;;;;;;3.78;1.40;;;;;;;8.60;97.86;99835.75;5027993;28;20053;-58
2023/06/18 09:20:23;;;;;;;1.45;0.80;;;;;;;8.53;97.85;99828.91;5037495;28;20045;-56
2023/06/18 09:22:57;;;;;;;3.92;1.00;;;;;;;8.43;97.64;99837.72;5028103;28;20049;-62
2023/06/18 09:25:30;;;;;;;2.28;1.05;;;;;;;8.28;98.46;99832.72;5039233;28;20048;-63
2023/06/18 09:28:04;;;;;;;1.35;0.68;;;;;;;8.09;98.39;99822.56;5027360;28;20052;-60
2023/06/18 09:30:36;;;;;;;1.75;0.90;;;;;;;8.19;98.58;99850.19;5027364;28;20190;-62
2023/06/18 09:33:14;;;;;;;1.05;0.82;;;;;;;8.12;98.90;99850.28;5037846;28;20052;-61
2023/06/18 09:35:47;;;;;;;2.88;0.80;;;;;;;8.03;99.26;99853.84;5027413;28;20076;-58
2023/06/18 09:38:33;;;;;;;3.47;1.00;;;;;;;8.04;99.73;99865.13;5037801;28;20503;-59
2023/06/18 09:41:14;;;;;;;1.25;0.90;;;;;;;7.95;99.87;99855.69;4990426;28;20064;-59
2023/06/18 09:43:48;;;;;;;2.65;1.25;;;;;;;7.91;100.00;99848.81;5026326;28;20049;-60
2023/06/18 09:46:25;;;;;;;2.15;1.02;;;;;;;7.91;100.00;99864.41;5039317;28;20059;-60
2023/06/18 09:48:57;;;;;;;3.13;1.00;;;;;;;7.85;100.00;99869.69;5031657;28;20076;-59
2023/06/18 09:51:28;;;;;;;3.80;1.20;;;;;;;7.70;100.00;99852.53;5042027;28;20136;-61
2023/06/18 09:54:01;;;;;;;1.70;1.17;;;;;;;7.82;100.00;99875.78;5031615;28;20106;-58
2023/06/18 09:56:34;;;;;;;3.97;1.40;;;;;;;7.70;100.00;99874.19;5041877;28;20826;-60
2023/06/18 09:59:07;;;;;;;6.75;2.17;;;;;;;7.73;100.00;99879.34;5016453;28;20125;-59
2023/06/18 10:01:48;;;;;;;2.25;1.20;;;;;;;7.70;100.00;99876.78;5030964;28;20379;-60
2023/06/18 10:04:21;;;;;;;5.57;1.13;;;;;;;7.65;100.00;99883.78;5041827;28;20049;-58
2023/06/18 10:06:56;;;;;;;4.40;1.10;;;;;;;7.69;100.00;99885.47;5031320;28;25125;-58
2023/06/18 10:09:34;;;;;;;4.97;1.38;;;;;;;7.67;100.00;99886.38;5040916;28;20118;-60
2023/06/18 10:12:09;;;;;;;3.75;1.05;;;;;;;6.91;100.00;99769.28;5031043;28;20060;-59
2023/06/18 10:14:42;;;;;;;4.55;1.50;;;;;;;7.56;100.00;99873.47;5031869;28;20143;-58
2023/06/18 10:17:24;;;;;;;3.92;1.40;;;;;;;7.68;100.00;99883.75;5042153;28;20463;-60
2023/06/18 10:20:01;;;;;;;1.42;1.15;;;;;;;7.74;100.00;99868.09;5031753;28;20056;-59
2023/06/18 10:22:37;;;;;;;3.17;1.10;;;;;;;7.52;100.00;99845.78;5040071;28;20052;-59
2023/06/18 10:25:09;;;;;;;6.00;1.23;;;;;;;7.64;100.00;99871.66;5042409;28;20188;-59
2023/06/18 10:27:43;;;;;;;6.97;1.30;;;;;;;7.55;100.00;99882.16;5031656;28;20060;-59
2023/06/18 10:30:16;;;;;;;2.45;1.30;;;;;;;7.54;100.00;99891.69;5042149;28;20121;-59
2023/06/18 10:32:50;;;;;;;3.25;1.60;;;;;;;7.49;100.00;99890.03;5031319;28;20049;-59
2023/06/18 10:35:22;;;;;;;3.80;1.27;;;;;;;7.39;100.00;99885.75;5041550;28;20543;-61
2023/06/18 10:37:56;;;;;;;3.50;1.38;;;;;;;7.39;100.00;99901.34;5032928;28;20147;-59
2023/06/18 10:40:28;;;;;;;4.13;1.95;;;;;;;7.27;100.00;99885.00;5042456;28;20510;-61
2023/06/18 10:43:10;;;;;;;5.18;1.40;;;;;;;7.27;100.00;99879.81;5030834;28;20060;-59
2023/06/18 10:46:11;;;;;;;3.50;1.60;;;;;;;7.41;100.00;99899.63;5031260;28;20087;-57
2023/06/18 10:48:43;;;;;;;6.53;1.60;;;;;;;7.47;100.00;99904.78;5031428;28;20135;-60
2023/06/18 10:51:17;;;;;;;6.18;1.40;;;;;;;7.40;100.00;99911.75;5041626;28;20056;-58
2023/06/18 10:53:49;;;;;;;7.00;1.88;;;;;;;7.39;100.00;99906.56;5031386;28;20051;-58
2023/06/18 10:56:22;;;;;;;4.38;1.60;;;;;;;7.48;100.00;99893.47;5041408;28;20109;-58
2023/06/18 10:58:55;;;;;;;5.78;1.60;;;;;;;7.59;100.00;99925.47;5031204;28;20057;-60
2023/06/18 11:01:31;;;;;;;6.55;1.85;;;;;;;7.47;100.00;99915.16;5041624;28;20102;-57
2023/06/18 11:04:07;;;;;;;5.80;2.00;;;;;;;7.63;100.00;99932.31;5030651;28;20769;-58
2023/06/18 11:06:39;;;;;;;10.48;2.20;;;;;;;7.59;100.00;99930.66;5031039;28;20060;-59
2023/06/18 11:09:15;;;;;;;5.70;1.73;;;;;;;7.58;100.00;99944.50;5041125;28;20401;-59
2023/06/18 11:11:52;;;;;;;4.28;1.60;;;;;;;7.63;100.00;99936.69;5028715;28;20180;-58
2023/06/18 11:14:31;;;;;;;6.43;2.08;;;;;;;7.67;100.00;99938.38;5020557;28;20048;-58
2023/06/18 11:17:13;;;;;;;7.57;2.13;;;;;;;7.47;100.00;99935.97;5011238;28;20048;-60
2023/06/18 11:19:46;;;;;;;6.43;1.92;;;;;;;7.39;100.00;99937.75;5011751;28;20057;-60
2023/06/18 11:22:18;;;;;;;8.30;1.83;;;;;;;7.42;100.00;99948.16;5021450;28;20140;-60
2023/06/18 11:24:50;;;;;;;8.88;1.80;;;;;;;7.40;100.00;99950.75;5011516;28;20131;-60
2023/06/18 11:27:23;;;;;;;5.55;1.50;;;;;;;7.38;100.00;99936.91;5021198;28;20044;-61
2023/06/18 11:29:57;;;;;;;5.30;2.20;;;;;;;7.47;100.00;99946.38;5029208;28;20090;-59
2023/06/18 11:32:30;;;;;;;3.97;1.70;;;;;;;7.34;100.00;99946.47;5040146;28;20127;-58
2023/06/18 11:35:02;;;;;;;8.95;2.10;;;;;;;7.42;100.00;99955.94;5029795;28;20075;-60
2023/06/18 11:37:34;;;;;;;7.03;1.75;;;;;;;7.09;100.00;99908.56;5031026;28;20048;-59
2023/06/18 11:40:07;;;;;;;5.72;2.03;;;;;;;7.31;100.00;99946.50;5033696;28;20048;-59
2023/06/18 11:42:41;;;;;;;10.98;1.92;;;;;;;7.37;100.00;99949.91;5029670;28;20040;-59
2023/06/18 11:45:15;;;;;;;10.05;1.80;;;;;;;7.45;100.00;99955.91;5040462;28;20129;-59
2023/06/18 11:47:48;;;;;;;4.97;1.70;;;;;;;7.54;100.00;99953.25;5030515;28;20056;-60
2023/06/18 11:50:27;;;;;;;8.10;1.90;;;;;;;7.51;100.00;99942.84;5039459;28;20070;-58
2023/06/18 11:52:59;;;;;;;3.20;1.50;;;;;;;7.40;100.00;99929.94;5029281;28;20374;-59
2023/06/18 11:55:32;;;;;;;5.22;2.08;;;;;;;7.52;100.00;99952.38;5040657;28;20308;-60
2023/06/18 11:58:04;;;;;;;6.80;1.83;;;;;;;7.18;100.00;99898.09;5009939;28;20067;-58